Back to Top

Language: 

My Weather Underground Personal Weather Station Historical Data with Graphs...

Delerius Weather Station Historical Data
Daily Summary for January 22, 2017 Units:  Both    English   Metric
« Previous Day
Next Day »
Daily Weekly Monthly Yearly Custom
  High: Low: Average:
Temperature: 38.0 °F /  3.3 °C 30.7 °F /  -0.7 °C 35.3 °F /  1.8 °C
Dew Point: 35.7 °F /  2.1 °C 28.4 °F /  -2 °C 32.9 °F /  0.5 °C
Humidity: 96 % 83 % 91 %
Wind Speed: 7.0 mph /  11.3 km/h - 1.5 mph /  2.4 km/h
Wind Gust: -999.0 mph /  -1607.7 km/h - -
Wind:- - South
Pressure: 30.32 in /  1026.6 hPa 30.23 in /  1023.6 hPa -
Precipitation: 0.00 in /  0 mm    
Historical Graphs
 
 
Tabular Data for January 22, 2017
Time Temperature Dew Point Pressure Wind Wind Speed Wind Gust Humidity Rainfall Rate (Hourly) solar Conditions
00:01 37.5 °F /  3.1 °C 34.0 °F /  1.1 °C 30.26 in /  1024.6 hPa SE 3.0 mph /  4.8 km/h -999.0 mph /  -1607.7 km/h 87 % 0.00 in /  0 mm 0 W/m2
00:06 37.5 °F /  3.1 °C 34.0 °F /  1.1 °C 30.26 in /  1024.6 hPa SE 3.0 mph /  4.8 km/h -999.0 mph /  -1607.7 km/h 87 % 0.00 in /  0 mm 0 W/m2
00:11 37.5 °F /  3.1 °C 34.0 °F /  1.1 °C 30.26 in /  1024.6 hPa SE 3.0 mph /  4.8 km/h -999.0 mph /  -1607.7 km/h 87 % 0.00 in /  0 mm 0 W/m2
00:16 37.5 °F /  3.1 °C 34.0 °F /  1.1 °C 30.26 in /  1024.6 hPa SE 3.0 mph /  4.8 km/h -999.0 mph /  -1607.7 km/h 87 % 0.00 in /  0 mm 0 W/m2
00:21 37.5 °F /  3.1 °C 34.0 °F /  1.1 °C 30.26 in /  1024.6 hPa SE 3.0 mph /  4.8 km/h -999.0 mph /  -1607.7 km/h 87 % 0.00 in /  0 mm 0 W/m2
00:26 37.4 °F /  3 °C 33.9 °F /  1.1 °C 30.25 in /  1024.3 hPa East 2.0 mph /  3.2 km/h -999.0 mph /  -1607.7 km/h 87 % 0.00 in /  0 mm 0 W/m2
00:31 37.4 °F /  3 °C 33.9 °F /  1.1 °C 30.25 in /  1024.3 hPa East 2.0 mph /  3.2 km/h -999.0 mph /  -1607.7 km/h 87 % 0.00 in /  0 mm 0 W/m2
00:36 37.4 °F /  3 °C 33.9 °F /  1.1 °C 30.25 in /  1024.3 hPa East 2.0 mph /  3.2 km/h -999.0 mph /  -1607.7 km/h 87 % 0.00 in /  0 mm 0 W/m2
00:41 37.2 °F /  2.9 °C 33.4 °F /  0.8 °C 30.25 in /  1024.3 hPa East 3.0 mph /  4.8 km/h -999.0 mph /  -1607.7 km/h 86 % 0.00 in /  0 mm 0 W/m2
00:46 37.2 °F /  2.9 °C 33.4 °F /  0.8 °C 30.25 in /  1024.3 hPa East 3.0 mph /  4.8 km/h -999.0 mph /  -1607.7 km/h 86 % 0.00 in /  0 mm 0 W/m2
00:51 37.2 °F /  2.9 °C 33.4 °F /  0.8 °C 30.25 in /  1024.3 hPa East 3.0 mph /  4.8 km/h -999.0 mph /  -1607.7 km/h 86 % 0.00 in /  0 mm 0 W/m2
00:56 37.1 °F /  2.8 °C 33.3 °F /  0.7 °C 30.25 in /  1024.3 hPa East 3.0 mph /  4.8 km/h -999.0 mph /  -1607.7 km/h 86 % 0.00 in /  0 mm 0 W/m2
01:01 37.1 °F /  2.8 °C 33.3 °F /  0.7 °C 30.25 in /  1024.3 hPa East 3.0 mph /  4.8 km/h -999.0 mph /  -1607.7 km/h 86 % 0.00 in /  0 mm 0 W/m2
01:06 37.1 °F /  2.8 °C 33.3 °F /  0.7 °C 30.25 in /  1024.3 hPa East 3.0 mph /  4.8 km/h -999.0 mph /  -1607.7 km/h 86 % 0.00 in /  0 mm 0 W/m2
01:11 37.1 °F /  2.8 °C 33.3 °F /  0.7 °C 30.25 in /  1024.3 hPa ESE 4.0 mph /  6.4 km/h -999.0 mph /  -1607.7 km/h 86 % 0.00 in /  0 mm 0 W/m2
01:16 37.1 °F /  2.8 °C 33.3 °F /  0.7 °C 30.25 in /  1024.3 hPa ESE 4.0 mph /  6.4 km/h -999.0 mph /  -1607.7 km/h 86 % 0.00 in /  0 mm 0 W/m2
01:21 37.1 °F /  2.8 °C 33.3 °F /  0.7 °C 30.25 in /  1024.3 hPa ESE 4.0 mph /  6.4 km/h -999.0 mph /  -1607.7 km/h 86 % 0.00 in /  0 mm 0 W/m2
01:26 37.0 °F /  2.8 °C 33.2 °F /  0.7 °C 30.25 in /  1024.3 hPa SE 5.0 mph /  8 km/h -999.0 mph /  -1607.7 km/h 86 % 0.00 in /  0 mm 0 W/m2
01:31 37.0 °F /  2.8 °C 33.2 °F /  0.7 °C 30.25 in /  1024.3 hPa SE 5.0 mph /  8 km/h -999.0 mph /  -1607.7 km/h 86 % 0.00 in /  0 mm 0 W/m2
01:36 37.0 °F /  2.8 °C 33.2 °F /  0.7 °C 30.25 in /  1024.3 hPa SE 5.0 mph /  8 km/h -999.0 mph /  -1607.7 km/h 86 % 0.00 in /  0 mm 0 W/m2
01:41 37.0 °F /  2.8 °C 32.9 °F /  0.5 °C 30.25 in /  1024.3 hPa SE 6.0 mph /  9.7 km/h -999.0 mph /  -1607.7 km/h 85 % 0.00 in /  0 mm 0 W/m2
01:46 37.0 °F /  2.8 °C 32.9 °F /  0.5 °C 30.25 in /  1024.3 hPa SE 6.0 mph /  9.7 km/h -999.0 mph /  -1607.7 km/h 85 % 0.00 in /  0 mm 0 W/m2
01:51 37.0 °F /  2.8 °C 32.9 °F /  0.5 °C 30.25 in /  1024.3 hPa SE 6.0 mph /  9.7 km/h -999.0 mph /  -1607.7 km/h 85 % 0.00 in /  0 mm 0 W/m2
01:56 36.8 °F /  2.7 °C 32.1 °F /  0.1 °C 30.24 in /  1023.9 hPa SE 7.0 mph /  11.3 km/h -999.0 mph /  -1607.7 km/h 83 % 0.00 in /  0 mm 0 W/m2
02:01 36.8 °F /  2.7 °C 32.1 °F /  0.1 °C 30.24 in /  1023.9 hPa SE 7.0 mph /  11.3 km/h -999.0 mph /  -1607.7 km/h 83 % 0.00 in /  0 mm 0 W/m2
02:06 36.8 °F /  2.7 °C 32.1 °F /  0.1 °C 30.24 in /  1023.9 hPa SE 7.0 mph /  11.3 km/h -999.0 mph /  -1607.7 km/h 83 % 0.00 in /  0 mm 0 W/m2
02:11 36.8 °F /  2.7 °C 32.4 °F /  0.2 °C 30.24 in /  1023.9 hPa SSE 4.0 mph /  6.4 km/h -999.0 mph /  -1607.7 km/h 84 % 0.00 in /  0 mm 0 W/m2
02:16 36.8 °F /  2.7 °C 32.4 °F /  0.2 °C 30.24 in /  1023.9 hPa SSE 4.0 mph /  6.4 km/h -999.0 mph /  -1607.7 km/h 84 % 0.00 in /  0 mm 0 W/m2
02:21 36.8 °F /  2.7 °C 32.4 °F /  0.2 °C 30.24 in /  1023.9 hPa SSE 4.0 mph /  6.4 km/h -999.0 mph /  -1607.7 km/h 84 % 0.00 in /  0 mm 0 W/m2
02:26 36.6 °F /  2.6 °C 32.5 °F /  0.3 °C 30.24 in /  1023.9 hPa SE 3.0 mph /  4.8 km/h -999.0 mph /  -1607.7 km/h 85 % 0.00 in /  0 mm 0 W/m2
02:31 36.6 °F /  2.6 °C 32.5 °F /  0.3 °C 30.24 in /  1023.9 hPa SE 3.0 mph /  4.8 km/h -999.0 mph /  -1607.7 km/h 85 % 0.00 in /  0 mm 0 W/m2
02:36 36.6 °F /  2.6 °C 32.5 °F /  0.3 °C 30.24 in /  1023.9 hPa SE 3.0 mph /  4.8 km/h -999.0 mph /  -1607.7 km/h 85 % 0.00 in /  0 mm 0 W/m2
02:41 36.1 °F /  2.3 °C 32.3 °F /  0.2 °C 30.23 in /  1023.6 hPa SSE 1.0 mph /  1.6 km/h -999.0 mph /  -1607.7 km/h 86 % 0.00 in /  0 mm 0 W/m2
02:46 36.1 °F /  2.3 °C 32.3 °F /  0.2 °C 30.23 in /  1023.6 hPa SSE 1.0 mph /  1.6 km/h -999.0 mph /  -1607.7 km/h 86 % 0.00 in /  0 mm 0 W/m2
02:51 36.1 °F /  2.3 °C 32.3 °F /  0.2 °C 30.23 in /  1023.6 hPa SSE 1.0 mph /  1.6 km/h -999.0 mph /  -1607.7 km/h 86 % 0.00 in /  0 mm 0 W/m2
02:56 35.5 °F /  1.9 °C 32.0 °F /  0 °C 30.24 in /  1023.9 hPa SE 1.0 mph /  1.6 km/h -999.0 mph /  -1607.7 km/h 87 % 0.00 in /  0 mm 0 W/m2
03:01 35.5 °F /  1.9 °C 32.0 °F /  0 °C 30.24 in /  1023.9 hPa SE 1.0 mph /  1.6 km/h -999.0 mph /  -1607.7 km/h 87 % 0.00 in /  0 mm 0 W/m2
03:06 35.5 °F /  1.9 °C 32.0 °F /  0 °C 30.24 in /  1023.9 hPa SE 1.0 mph /  1.6 km/h -999.0 mph /  -1607.7 km/h 87 % 0.00 in /  0 mm 0 W/m2
03:11 34.8 °F /  1.6 °C 31.6 °F /  -0.2 °C 30.24 in /  1023.9 hPa SSE 3.0 mph /  4.8 km/h -999.0 mph /  -1607.7 km/h 88 % 0.00 in /  0 mm 0 W/m2
03:16 34.8 °F /  1.6 °C 31.6 °F /  -0.2 °C 30.24 in /  1023.9 hPa SSE 3.0 mph /  4.8 km/h -999.0 mph /  -1607.7 km/h 88 % 0.00 in /  0 mm 0 W/m2
03:21 34.8 °F /  1.6 °C 31.6 °F /  -0.2 °C 30.24 in /  1023.9 hPa SSE 3.0 mph /  4.8 km/h -999.0 mph /  -1607.7 km/h 88 % 0.00 in /  0 mm 0 W/m2
03:26 34.2 °F /  1.2 °C 31.3 °F /  -0.4 °C 30.23 in /  1023.6 hPa Calm   -999.0 mph /  -1607.7 km/h 89 % 0.00 in /  0 mm 0 W/m2
03:31 34.2 °F /  1.2 °C 31.3 °F /  -0.4 °C 30.23 in /  1023.6 hPa Calm   -999.0 mph /  -1607.7 km/h 89 % 0.00 in /  0 mm 0 W/m2
03:36 34.2 °F /  1.2 °C 31.3 °F /  -0.4 °C 30.23 in /  1023.6 hPa Calm   -999.0 mph /  -1607.7 km/h 89 % 0.00 in /  0 mm 0 W/m2
03:41 33.6 °F /  0.9 °C 31.0 °F /  -0.6 °C 30.24 in /  1023.9 hPa SSE 1.0 mph /  1.6 km/h -999.0 mph /  -1607.7 km/h 90 % 0.00 in /  0 mm 0 W/m2
03:46 33.6 °F /  0.9 °C 31.0 °F /  -0.6 °C 30.24 in /  1023.9 hPa SSE 1.0 mph /  1.6 km/h -999.0 mph /  -1607.7 km/h 90 % 0.00 in /  0 mm 0 W/m2
03:51 33.6 °F /  0.9 °C 31.0 °F /  -0.6 °C 30.24 in /  1023.9 hPa SSE 1.0 mph /  1.6 km/h -999.0 mph /  -1607.7 km/h 90 % 0.00 in /  0 mm 0 W/m2
04:06 33.2 °F /  0.7 °C 30.9 °F /  -0.6 °C 30.24 in /  1023.9 hPa Calm   -999.0 mph /  -1607.7 km/h 91 % 0.00 in /  0 mm 0 W/m2
04:11 32.8 °F /  0.4 °C 30.7 °F /  -0.7 °C 30.24 in /  1023.9 hPa SW 1.0 mph /  1.6 km/h -999.0 mph /  -1607.7 km/h 92 % 0.00 in /  0 mm 0 W/m2
04:16 32.8 °F /  0.4 °C 30.7 °F /  -0.7 °C 30.24 in /  1023.9 hPa SW 1.0 mph /  1.6 km/h -999.0 mph /  -1607.7 km/h 92 % 0.00 in /  0 mm 0 W/m2
04:21 32.8 °F /  0.4 °C 30.7 °F /  -0.7 °C 30.24 in /  1023.9 hPa SW 1.0 mph /  1.6 km/h -999.0 mph /  -1607.7 km/h 92 % 0.00 in /  0 mm 0 W/m2
04:26 32.6 °F /  0.3 °C 30.5 °F /  -0.8 °C 30.24 in /  1023.9 hPa SSW 6.0 mph /  9.7 km/h -999.0 mph /  -1607.7 km/h 92 % 0.00 in /  0 mm 0 W/m2
04:31 32.6 °F /  0.3 °C 30.5 °F /  -0.8 °C 30.24 in /  1023.9 hPa SSW 6.0 mph /  9.7 km/h -999.0 mph /  -1607.7 km/h 92 % 0.00 in /  0 mm 0 W/m2
04:36 32.6 °F /  0.3 °C 30.5 °F /  -0.8 °C 30.24 in /  1023.9 hPa SSW 6.0 mph /  9.7 km/h -999.0 mph /  -1607.7 km/h 92 % 0.00 in /  0 mm 0 W/m2
04:41 32.5 °F /  0.3 °C 30.2 °F /  -1 °C 30.24 in /  1023.9 hPa SSW 3.0 mph /  4.8 km/h -999.0 mph /  -1607.7 km/h 91 % 0.00 in /  0 mm 0 W/m2
04:46 32.5 °F /  0.3 °C 30.2 °F /  -1 °C 30.24 in /  1023.9 hPa SSW 3.0 mph /  4.8 km/h -999.0 mph /  -1607.7 km/h 91 % 0.00 in /  0 mm 0 W/m2
04:51 32.5 °F /  0.3 °C 30.2 °F /  -1 °C 30.24 in /  1023.9 hPa SSW 3.0 mph /  4.8 km/h -999.0 mph /  -1607.7 km/h 91 % 0.00 in /  0 mm 0 W/m2
04:56 32.1 °F /  0.1 °C 29.8 °F /  -1.2 °C 30.24 in /  1023.9 hPa Calm   -999.0 mph /  -1607.7 km/h 91 % 0.00 in /  0 mm 0 W/m2
05:01 32.1 °F /  0.1 °C 29.8 °F /  -1.2 °C 30.24 in /  1023.9 hPa Calm   -999.0 mph /  -1607.7 km/h 91 % 0.00 in /  0 mm 0 W/m2
05:06 32.1 °F /  0.1 °C 29.8 °F /  -1.2 °C 30.24 in /  1023.9 hPa Calm   -999.0 mph /  -1607.7 km/h 91 % 0.00 in /  0 mm 0 W/m2
05:11 31.5 °F /  -0.3 °C 29.2 °F /  -1.6 °C 30.24 in /  1023.9 hPa Calm   -999.0 mph /  -1607.7 km/h 91 % 0.00 in /  0 mm 0 W/m2
05:16 31.5 °F /  -0.3 °C 29.2 °F /  -1.6 °C 30.24 in /  1023.9 hPa Calm   -999.0 mph /  -1607.7 km/h 91 % 0.00 in /  0 mm 0 W/m2
05:21 31.5 °F /  -0.3 °C 29.2 °F /  -1.6 °C 30.24 in /  1023.9 hPa Calm   -999.0 mph /  -1607.7 km/h 91 % 0.00 in /  0 mm 0 W/m2
05:26 31.4 °F /  -0.3 °C 29.3 °F /  -1.5 °C 30.24 in /  1023.9 hPa Calm   -999.0 mph /  -1607.7 km/h 92 % 0.00 in /  0 mm 0 W/m2
05:31 31.4 °F /  -0.3 °C 29.3 °F /  -1.5 °C 30.24 in /  1023.9 hPa Calm   -999.0 mph /  -1607.7 km/h 92 % 0.00 in /  0 mm 0 W/m2
05:36 31.4 °F /  -0.3 °C 29.3 °F /  -1.5 °C 30.24 in /  1023.9 hPa Calm   -999.0 mph /  -1607.7 km/h 92 % 0.00 in /  0 mm 0 W/m2
05:41 31.2 °F /  -0.4 °C 28.9 °F /  -1.7 °C 30.24 in /  1023.9 hPa Calm   -999.0 mph /  -1607.7 km/h 91 % 0.00 in /  0 mm 0 W/m2
05:46 31.2 °F /  -0.4 °C 28.9 °F /  -1.7 °C 30.24 in /  1023.9 hPa Calm   -999.0 mph /  -1607.7 km/h 91 % 0.00 in /  0 mm 0 W/m2
05:51 31.2 °F /  -0.4 °C 28.9 °F /  -1.7 °C 30.24 in /  1023.9 hPa Calm   -999.0 mph /  -1607.7 km/h 91 % 0.00 in /  0 mm 0 W/m2
05:56 30.9 °F /  -0.6 °C 28.9 °F /  -1.7 °C 30.24 in /  1023.9 hPa SSW 1.0 mph /  1.6 km/h -999.0 mph /  -1607.7 km/h 92 % 0.00 in /  0 mm 0 W/m2
06:01 30.9 °F /  -0.6 °C 28.9 °F /  -1.7 °C 30.24 in /  1023.9 hPa SSW 1.0 mph /  1.6 km/h -999.0 mph /  -1607.7 km/h 92 % 0.00 in /  0 mm 0 W/m2
06:06 30.9 °F /  -0.6 °C 28.9 °F /  -1.7 °C 30.24 in /  1023.9 hPa SSW 1.0 mph /  1.6 km/h -999.0 mph /  -1607.7 km/h 92 % 0.00 in /  0 mm 0 W/m2
06:11 31.0 °F /  -0.6 °C 28.9 °F /  -1.7 °C 30.24 in /  1023.9 hPa SSW 3.0 mph /  4.8 km/h -999.0 mph /  -1607.7 km/h 92 % 0.00 in /  0 mm 0 W/m2
06:16 31.0 °F /  -0.6 °C 28.9 °F /  -1.7 °C 30.24 in /  1023.9 hPa SSW 3.0 mph /  4.8 km/h -999.0 mph /  -1607.7 km/h 92 % 0.00 in /  0 mm 0 W/m2
06:21 31.0 °F /  -0.6 °C 28.9 °F /  -1.7 °C 30.24 in /  1023.9 hPa SSW 3.0 mph /  4.8 km/h -999.0 mph /  -1607.7 km/h 92 % 0.00 in /  0 mm 0 W/m2
06:26 31.0 °F /  -0.6 °C 28.9 °F /  -1.7 °C 30.25 in /  1024.3 hPa SW 4.0 mph /  6.4 km/h -999.0 mph /  -1607.7 km/h 92 % 0.00 in /  0 mm 0 W/m2
06:31 31.0 °F /  -0.6 °C 28.9 °F /  -1.7 °C 30.25 in /  1024.3 hPa SW 4.0 mph /  6.4 km/h -999.0 mph /  -1607.7 km/h 92 % 0.00 in /  0 mm 0 W/m2
06:36 31.0 °F /  -0.6 °C 28.9 °F /  -1.7 °C 30.25 in /  1024.3 hPa SW 4.0 mph /  6.4 km/h -999.0 mph /  -1607.7 km/h 92 % 0.00 in /  0 mm 0 W/m2
06:41 31.4 °F /  -0.3 °C 29.1 °F /  -1.6 °C 30.24 in /  1023.9 hPa SSW 2.0 mph /  3.2 km/h -999.0 mph /  -1607.7 km/h 91 % 0.00 in /  0 mm 0 W/m2
06:46 31.4 °F /  -0.3 °C 29.1 °F /  -1.6 °C 30.24 in /  1023.9 hPa SSW 2.0 mph /  3.2 km/h -999.0 mph /  -1607.7 km/h 91 % 0.00 in /  0 mm 0 W/m2
06:51 31.4 °F /  -0.3 °C 29.1 °F /  -1.6 °C 30.24 in /  1023.9 hPa SSW 2.0 mph /  3.2 km/h -999.0 mph /  -1607.7 km/h 91 % 0.00 in /  0 mm 0 W/m2
06:56 31.3 °F /  -0.4 °C 28.7 °F /  -1.8 °C 30.24 in /  1023.9 hPa Calm   -999.0 mph /  -1607.7 km/h 90 % 0.00 in /  0 mm 0 W/m2
07:01 31.3 °F /  -0.4 °C 28.7 °F /  -1.8 °C 30.24 in /  1023.9 hPa Calm   -999.0 mph /  -1607.7 km/h 90 % 0.00 in /  0 mm 0 W/m2
07:06 31.3 °F /  -0.4 °C 28.7 °F /  -1.8 °C 30.24 in /  1023.9 hPa Calm   -999.0 mph /  -1607.7 km/h 90 % 0.00 in /  0 mm 0 W/m2
07:11 30.8 °F /  -0.7 °C 28.5 °F /  -1.9 °C 30.24 in /  1023.9 hPa Calm   -999.0 mph /  -1607.7 km/h 91 % 0.00 in /  0 mm 0 W/m2
07:16 30.8 °F /  -0.7 °C 28.5 °F /  -1.9 °C 30.24 in /  1023.9 hPa Calm   -999.0 mph /  -1607.7 km/h 91 % 0.00 in /  0 mm 0 W/m2
07:21 30.8 °F /  -0.7 °C 28.5 °F /  -1.9 °C 30.24 in /  1023.9 hPa Calm   -999.0 mph /  -1607.7 km/h 91 % 0.00 in /  0 mm 0 W/m2
07:26 30.7 °F /  -0.7 °C 28.4 °F /  -2 °C 30.25 in /  1024.3 hPa SSW 1.0 mph /  1.6 km/h -999.0 mph /  -1607.7 km/h 91 % 0.00 in /  0 mm 0 W/m2
07:31 30.7 °F /  -0.7 °C 28.4 °F /  -2 °C 30.25 in /  1024.3 hPa SSW 1.0 mph /  1.6 km/h -999.0 mph /  -1607.7 km/h 91 % 0.00 in /  0 mm 0 W/m2
07:36 30.7 °F /  -0.7 °C 28.4 °F /  -2 °C 30.25 in /  1024.3 hPa SSW 1.0 mph /  1.6 km/h -999.0 mph /  -1607.7 km/h 91 % 0.00 in /  0 mm 0 W/m2
07:41 30.8 °F /  -0.7 °C 28.5 °F /  -1.9 °C 30.25 in /  1024.3 hPa SE 1.0 mph /  1.6 km/h -999.0 mph /  -1607.7 km/h 91 % 0.00 in /  0 mm 0 W/m2
07:46 30.8 °F /  -0.7 °C 28.5 °F /  -1.9 °C 30.25 in /  1024.3 hPa SE 1.0 mph /  1.6 km/h -999.0 mph /  -1607.7 km/h 91 % 0.00 in /  0 mm 0 W/m2
07:51 30.8 °F /  -0.7 °C 28.5 °F /  -1.9 °C 30.25 in /  1024.3 hPa SE 1.0 mph /  1.6 km/h -999.0 mph /  -1607.7 km/h 91 % 0.00 in /  0 mm 0 W/m2
07:56 30.9 °F /  -0.6 °C 28.9 °F /  -1.7 °C 30.25 in /  1024.3 hPa South 3.0 mph /  4.8 km/h -999.0 mph /  -1607.7 km/h 92 % 0.00 in /  0 mm 0 W/m2
08:01 30.9 °F /  -0.6 °C 28.9 °F /  -1.7 °C 30.25 in /  1024.3 hPa South 3.0 mph /  4.8 km/h -999.0 mph /  -1607.7 km/h 92 % 0.00 in /  0 mm 0 W/m2
08:06 30.9 °F /  -0.6 °C 28.9 °F /  -1.7 °C 30.25 in /  1024.3 hPa South 3.0 mph /  4.8 km/h -999.0 mph /  -1607.7 km/h 92 % 0.00 in /  0 mm 0 W/m2
08:11 31.1 °F /  -0.5 °C 28.8 °F /  -1.8 °C 30.25 in /  1024.3 hPa SSW 3.0 mph /  4.8 km/h -999.0 mph /  -1607.7 km/h 91 % 0.00 in /  0 mm 8 W/m2
08:16 31.1 °F /  -0.5 °C 28.8 °F /  -1.8 °C 30.25 in /  1024.3 hPa SSW 3.0 mph /  4.8 km/h -999.0 mph /  -1607.7 km/h 91 % 0.00 in /  0 mm 8 W/m2
08:21 31.1 °F /  -0.5 °C 28.8 °F /  -1.8 °C 30.25 in /  1024.3 hPa SSW 3.0 mph /  4.8 km/h -999.0 mph /  -1607.7 km/h 91 % 0.00 in /  0 mm 8 W/m2
08:26 31.2 °F /  -0.4 °C 28.9 °F /  -1.7 °C 30.26 in /  1024.6 hPa SW 3.0 mph /  4.8 km/h -999.0 mph /  -1607.7 km/h 91 % 0.00 in /  0 mm 15 W/m2
08:31 31.2 °F /  -0.4 °C 28.9 °F /  -1.7 °C 30.26 in /  1024.6 hPa SW 3.0 mph /  4.8 km/h -999.0 mph /  -1607.7 km/h 91 % 0.00 in /  0 mm 15 W/m2
08:36 31.2 °F /  -0.4 °C 28.9 °F /  -1.7 °C 30.26 in /  1024.6 hPa SW 3.0 mph /  4.8 km/h -999.0 mph /  -1607.7 km/h 91 % 0.00 in /  0 mm 15 W/m2
08:41 31.4 °F /  -0.3 °C 29.3 °F /  -1.5 °C 30.26 in /  1024.6 hPa SW 3.0 mph /  4.8 km/h -999.0 mph /  -1607.7 km/h 92 % 0.00 in /  0 mm 14 W/m2
08:46 31.4 °F /  -0.3 °C 29.3 °F /  -1.5 °C 30.26 in /  1024.6 hPa SW 3.0 mph /  4.8 km/h -999.0 mph /  -1607.7 km/h 92 % 0.00 in /  0 mm 14 W/m2
08:51 31.4 °F /  -0.3 °C 29.3 °F /  -1.5 °C 30.26 in /  1024.6 hPa SW 3.0 mph /  4.8 km/h -999.0 mph /  -1607.7 km/h 92 % 0.00 in /  0 mm 14 W/m2
08:56 31.7 °F /  -0.2 °C 29.4 °F /  -1.4 °C 30.27 in /  1024.9 hPa SW 2.0 mph /  3.2 km/h -999.0 mph /  -1607.7 km/h 91 % 0.00 in /  0 mm 12 W/m2
09:01 31.7 °F /  -0.2 °C 29.4 °F /  -1.4 °C 30.27 in /  1024.9 hPa SW 2.0 mph /  3.2 km/h -999.0 mph /  -1607.7 km/h 91 % 0.00 in /  0 mm 12 W/m2
09:06 31.7 °F /  -0.2 °C 29.4 °F /  -1.4 °C 30.27 in /  1024.9 hPa SW 2.0 mph /  3.2 km/h -999.0 mph /  -1607.7 km/h 91 % 0.00 in /  0 mm 12 W/m2
09:11 32.0 °F /  0 °C 29.7 °F /  -1.3 °C 30.26 in /  1024.6 hPa SW 1.0 mph /  1.6 km/h -999.0 mph /  -1607.7 km/h 91 % 0.00 in /  0 mm 13 W/m2
09:16 32.0 °F /  0 °C 29.7 °F /  -1.3 °C 30.26 in /  1024.6 hPa SW 1.0 mph /  1.6 km/h -999.0 mph /  -1607.7 km/h 91 % 0.00 in /  0 mm 13 W/m2
09:21 32.0 °F /  0 °C 29.7 °F /  -1.3 °C 30.26 in /  1024.6 hPa SW 1.0 mph /  1.6 km/h -999.0 mph /  -1607.7 km/h 91 % 0.00 in /  0 mm 13 W/m2
09:26 32.4 °F /  0.2 °C 30.1 °F /  -1.1 °C 30.26 in /  1024.6 hPa SW 1.0 mph /  1.6 km/h -999.0 mph /  -1607.7 km/h 91 % 0.00 in /  0 mm 25 W/m2
09:31 32.4 °F /  0.2 °C 30.1 °F /  -1.1 °C 30.26 in /  1024.6 hPa SW 1.0 mph /  1.6 km/h -999.0 mph /  -1607.7 km/h 91 % 0.00 in /  0 mm 25 W/m2
09:36 32.4 °F /  0.2 °C 30.1 °F /  -1.1 °C 30.26 in /  1024.6 hPa SW 1.0 mph /  1.6 km/h -999.0 mph /  -1607.7 km/h 91 % 0.00 in /  0 mm 25 W/m2
09:41 33.0 °F /  0.6 °C 30.7 °F /  -0.7 °C 30.26 in /  1024.6 hPa West 2.0 mph /  3.2 km/h -999.0 mph /  -1607.7 km/h 91 % 0.00 in /  0 mm 42 W/m2
09:46 33.0 °F /  0.6 °C 30.7 °F /  -0.7 °C 30.26 in /  1024.6 hPa West 2.0 mph /  3.2 km/h -999.0 mph /  -1607.7 km/h 91 % 0.00 in /  0 mm 42 W/m2
09:51 33.0 °F /  0.6 °C 30.7 °F /  -0.7 °C 30.26 in /  1024.6 hPa West 2.0 mph /  3.2 km/h -999.0 mph /  -1607.7 km/h 91 % 0.00 in /  0 mm 42 W/m2
09:56 33.7 °F /  0.9 °C 31.4 °F /  -0.3 °C 30.26 in /  1024.6 hPa West 1.0 mph /  1.6 km/h -999.0 mph /  -1607.7 km/h 91 % 0.00 in /  0 mm 54 W/m2
10:01 33.7 °F /  0.9 °C 31.4 °F /  -0.3 °C 30.26 in /  1024.6 hPa West 1.0 mph /  1.6 km/h -999.0 mph /  -1607.7 km/h 91 % 0.00 in /  0 mm 54 W/m2
10:06 33.7 °F /  0.9 °C 31.4 °F /  -0.3 °C 30.26 in /  1024.6 hPa West 1.0 mph /  1.6 km/h -999.0 mph /  -1607.7 km/h 91 % 0.00 in /  0 mm 54 W/m2
10:11 34.2 °F /  1.2 °C 31.8 °F /  -0.1 °C 30.27 in /  1024.9 hPa Calm   -999.0 mph /  -1607.7 km/h 91 % 0.00 in /  0 mm 61 W/m2
10:16 34.2 °F /  1.2 °C 31.8 °F /  -0.1 °C 30.27 in /  1024.9 hPa Calm   -999.0 mph /  -1607.7 km/h 91 % 0.00 in /  0 mm 61 W/m2
10:21 34.2 °F /  1.2 °C 31.8 °F /  -0.1 °C 30.27 in /  1024.9 hPa Calm   -999.0 mph /  -1607.7 km/h 91 % 0.00 in /  0 mm 61 W/m2
10:26 34.7 °F /  1.5 °C 32.1 °F /  0.1 °C 30.27 in /  1024.9 hPa Calm   -999.0 mph /  -1607.7 km/h 90 % 0.00 in /  0 mm 53 W/m2
10:31 34.7 °F /  1.5 °C 32.1 °F /  0.1 °C 30.27 in /  1024.9 hPa Calm   -999.0 mph /  -1607.7 km/h 90 % 0.00 in /  0 mm 53 W/m2
10:36 34.7 °F /  1.5 °C 32.1 °F /  0.1 °C 30.27 in /  1024.9 hPa Calm   -999.0 mph /  -1607.7 km/h 90 % 0.00 in /  0 mm 53 W/m2
10:41 35.1 °F /  1.7 °C 32.5 °F /  0.3 °C 30.27 in /  1024.9 hPa Calm   -999.0 mph /  -1607.7 km/h 90 % 0.00 in /  0 mm 38 W/m2
10:46 35.1 °F /  1.7 °C 32.5 °F /  0.3 °C 30.27 in /  1024.9 hPa Calm   -999.0 mph /  -1607.7 km/h 90 % 0.00 in /  0 mm 38 W/m2
10:51 35.1 °F /  1.7 °C 32.5 °F /  0.3 °C 30.27 in /  1024.9 hPa Calm   -999.0 mph /  -1607.7 km/h 90 % 0.00 in /  0 mm 38 W/m2
10:56 35.5 °F /  1.9 °C 32.6 °F /  0.3 °C 30.27 in /  1024.9 hPa Calm   -999.0 mph /  -1607.7 km/h 89 % 0.00 in /  0 mm 39 W/m2
11:01 35.5 °F /  1.9 °C 32.6 °F /  0.3 °C 30.27 in /  1024.9 hPa Calm   -999.0 mph /  -1607.7 km/h 89 % 0.00 in /  0 mm 39 W/m2
11:06 35.5 °F /  1.9 °C 32.6 °F /  0.3 °C 30.27 in /  1024.9 hPa Calm   -999.0 mph /  -1607.7 km/h 89 % 0.00 in /  0 mm 39 W/m2
11:11 35.8 °F /  2.1 °C 32.9 °F /  0.5 °C 30.27 in /  1024.9 hPa Calm   -999.0 mph /  -1607.7 km/h 89 % 0.00 in /  0 mm 38 W/m2
11:16 35.8 °F /  2.1 °C 32.9 °F /  0.5 °C 30.27 in /  1024.9 hPa Calm   -999.0 mph /  -1607.7 km/h 89 % 0.00 in /  0 mm 38 W/m2
11:21 35.8 °F /  2.1 °C 32.9 °F /  0.5 °C 30.27 in /  1024.9 hPa Calm   -999.0 mph /  -1607.7 km/h 89 % 0.00 in /  0 mm 38 W/m2
11:26 36.1 °F /  2.3 °C 33.2 °F /  0.7 °C 30.27 in /  1024.9 hPa Calm   -999.0 mph /  -1607.7 km/h 89 % 0.00 in /  0 mm 40 W/m2
11:31 36.1 °F /  2.3 °C 33.2 °F /  0.7 °C 30.27 in /  1024.9 hPa Calm   -999.0 mph /  -1607.7 km/h 89 % 0.00 in /  0 mm 40 W/m2
11:36 36.1 °F /  2.3 °C 33.2 °F /  0.7 °C 30.27 in /  1024.9 hPa Calm   -999.0 mph /  -1607.7 km/h 89 % 0.00 in /  0 mm 40 W/m2
11:41 36.5 °F /  2.5 °C 33.6 °F /  0.9 °C 30.27 in /  1024.9 hPa SW 2.0 mph /  3.2 km/h -999.0 mph /  -1607.7 km/h 89 % 0.00 in /  0 mm 39 W/m2
11:46 36.5 °F /  2.5 °C 33.6 °F /  0.9 °C 30.27 in /  1024.9 hPa SW 2.0 mph /  3.2 km/h -999.0 mph /  -1607.7 km/h 89 % 0.00 in /  0 mm 39 W/m2
11:51 36.5 °F /  2.5 °C 33.6 °F /  0.9 °C 30.27 in /  1024.9 hPa SW 2.0 mph /  3.2 km/h -999.0 mph /  -1607.7 km/h 89 % 0.00 in /  0 mm 39 W/m2
11:56 37.1 °F /  2.8 °C 34.2 °F /  1.2 °C 30.26 in /  1024.6 hPa Calm   -999.0 mph /  -1607.7 km/h 89 % 0.00 in /  0 mm 49 W/m2
12:01 37.1 °F /  2.8 °C 34.2 °F /  1.2 °C 30.26 in /  1024.6 hPa Calm   -999.0 mph /  -1607.7 km/h 89 % 0.00 in /  0 mm 49 W/m2
12:06 37.1 °F /  2.8 °C 34.2 °F /  1.2 °C 30.26 in /  1024.6 hPa Calm   -999.0 mph /  -1607.7 km/h 89 % 0.00 in /  0 mm 49 W/m2
12:11 37.2 °F /  2.9 °C 34.3 °F /  1.3 °C 30.26 in /  1024.6 hPa Calm   -999.0 mph /  -1607.7 km/h 89 % 0.00 in /  0 mm 32 W/m2
12:16 37.2 °F /  2.9 °C 34.3 °F /  1.3 °C 30.26 in /  1024.6 hPa Calm   -999.0 mph /  -1607.7 km/h 89 % 0.00 in /  0 mm 32 W/m2
12:21 37.2 °F /  2.9 °C 34.3 °F /  1.3 °C 30.26 in /  1024.6 hPa Calm   -999.0 mph /  -1607.7 km/h 89 % 0.00 in /  0 mm 32 W/m2
12:26 37.5 °F /  3.1 °C 35.1 °F /  1.7 °C 30.26 in /  1024.6 hPa SW 1.0 mph /  1.6 km/h -999.0 mph /  -1607.7 km/h 91 % 0.00 in /  0 mm 70 W/m2
12:31 37.5 °F /  3.1 °C 35.1 °F /  1.7 °C 30.26 in /  1024.6 hPa SW 1.0 mph /  1.6 km/h -999.0 mph /  -1607.7 km/h 91 % 0.00 in /  0 mm 70 W/m2
12:36 37.5 °F /  3.1 °C 35.1 °F /  1.7 °C 30.26 in /  1024.6 hPa SW 1.0 mph /  1.6 km/h -999.0 mph /  -1607.7 km/h 91 % 0.00 in /  0 mm 70 W/m2
12:41 38.0 °F /  3.3 °C 35.3 °F /  1.8 °C 30.26 in /  1024.6 hPa South 3.0 mph /  4.8 km/h -999.0 mph /  -1607.7 km/h 90 % 0.00 in /  0 mm 29 W/m2
12:46 38.0 °F /  3.3 °C 35.3 °F /  1.8 °C 30.26 in /  1024.6 hPa South 3.0 mph /  4.8 km/h -999.0 mph /  -1607.7 km/h 90 % 0.00 in /  0 mm 29 W/m2
12:51 38.0 °F /  3.3 °C 35.3 °F /  1.8 °C 30.26 in /  1024.6 hPa South 3.0 mph /  4.8 km/h -999.0 mph /  -1607.7 km/h 90 % 0.00 in /  0 mm 29 W/m2
12:56 37.9 °F /  3.3 °C 35.2 °F /  1.8 °C 30.26 in /  1024.6 hPa South 4.0 mph /  6.4 km/h -999.0 mph /  -1607.7 km/h 90 % 0.00 in /  0 mm 26 W/m2
13:01 37.9 °F /  3.3 °C 35.2 °F /  1.8 °C 30.26 in /  1024.6 hPa South 4.0 mph /  6.4 km/h -999.0 mph /  -1607.7 km/h 90 % 0.00 in /  0 mm 26 W/m2
13:06 37.9 °F /  3.3 °C 35.2 °F /  1.8 °C 30.26 in /  1024.6 hPa South 4.0 mph /  6.4 km/h -999.0 mph /  -1607.7 km/h 90 % 0.00 in /  0 mm 26 W/m2
13:11 37.5 °F /  3.1 °C 34.8 °F /  1.6 °C 30.26 in /  1024.6 hPa South 4.0 mph /  6.4 km/h -999.0 mph /  -1607.7 km/h 90 % 0.00 in /  0 mm 52 W/m2
13:16 37.5 °F /  3.1 °C 34.8 °F /  1.6 °C 30.26 in /  1024.6 hPa South 4.0 mph /  6.4 km/h -999.0 mph /  -1607.7 km/h 90 % 0.00 in /  0 mm 52 W/m2
13:21 37.5 °F /  3.1 °C 34.8 °F /  1.6 °C 30.26 in /  1024.6 hPa South 4.0 mph /  6.4 km/h -999.0 mph /  -1607.7 km/h 90 % 0.00 in /  0 mm 52 W/m2
13:26 37.0 °F /  2.8 °C 34.6 °F /  1.4 °C 30.26 in /  1024.6 hPa SSE 3.0 mph /  4.8 km/h -999.0 mph /  -1607.7 km/h 91 % 0.00 in /  0 mm 35 W/m2
13:31 37.0 °F /  2.8 °C 34.6 °F /  1.4 °C 30.26 in /  1024.6 hPa SSE 3.0 mph /  4.8 km/h -999.0 mph /  -1607.7 km/h 91 % 0.00 in /  0 mm 35 W/m2
13:36 37.0 °F /  2.8 °C 34.6 °F /  1.4 °C 30.26 in /  1024.6 hPa SSE 3.0 mph /  4.8 km/h -999.0 mph /  -1607.7 km/h 91 % 0.00 in /  0 mm 35 W/m2
13:41 36.8 °F /  2.7 °C 34.4 °F /  1.3 °C 30.26 in /  1024.6 hPa SSE 4.0 mph /  6.4 km/h -999.0 mph /  -1607.7 km/h 91 % 0.00 in /  0 mm 37 W/m2
13:46 36.8 °F /  2.7 °C 34.4 °F /  1.3 °C 30.26 in /  1024.6 hPa SSE 4.0 mph /  6.4 km/h -999.0 mph /  -1607.7 km/h 91 % 0.00 in /  0 mm 37 W/m2
13:51 36.8 °F /  2.7 °C 34.4 °F /  1.3 °C 30.26 in /  1024.6 hPa SSE 4.0 mph /  6.4 km/h -999.0 mph /  -1607.7 km/h 91 % 0.00 in /  0 mm 37 W/m2
13:56 37.0 °F /  2.8 °C 34.9 °F /  1.6 °C 30.26 in /  1024.6 hPa SSW 3.0 mph /  4.8 km/h -999.0 mph /  -1607.7 km/h 92 % 0.00 in /  0 mm 30 W/m2
14:01 37.0 °F /  2.8 °C 34.9 °F /  1.6 °C 30.26 in /  1024.6 hPa SSW 3.0 mph /  4.8 km/h -999.0 mph /  -1607.7 km/h 92 % 0.00 in /  0 mm 30 W/m2
14:06 37.0 °F /  2.8 °C 34.9 °F /  1.6 °C 30.26 in /  1024.6 hPa SSW 3.0 mph /  4.8 km/h -999.0 mph /  -1607.7 km/h 92 % 0.00 in /  0 mm 30 W/m2
14:11 37.2 °F /  2.9 °C 34.8 °F /  1.6 °C 30.26 in /  1024.6 hPa South 4.0 mph /  6.4 km/h -999.0 mph /  -1607.7 km/h 91 % 0.00 in /  0 mm 21 W/m2
14:16 37.2 °F /  2.9 °C 34.8 °F /  1.6 °C 30.26 in /  1024.6 hPa South 4.0 mph /  6.4 km/h -999.0 mph /  -1607.7 km/h 91 % 0.00 in /  0 mm 21 W/m2
14:21 37.2 °F /  2.9 °C 34.8 °F /  1.6 °C 30.26 in /  1024.6 hPa South 4.0 mph /  6.4 km/h -999.0 mph /  -1607.7 km/h 91 % 0.00 in /  0 mm 21 W/m2
14:26 37.3 °F /  2.9 °C 34.9 °F /  1.6 °C 30.26 in /  1024.6 hPa SSW 5.0 mph /  8 km/h -999.0 mph /  -1607.7 km/h 91 % 0.00 in /  0 mm 25 W/m2
14:31 37.3 °F /  2.9 °C 34.9 °F /  1.6 °C 30.26 in /  1024.6 hPa SSW 5.0 mph /  8 km/h -999.0 mph /  -1607.7 km/h 91 % 0.00 in /  0 mm 25 W/m2
14:36 37.3 °F /  2.9 °C 34.9 °F /  1.6 °C 30.26 in /  1024.6 hPa SSW 5.0 mph /  8 km/h -999.0 mph /  -1607.7 km/h 91 % 0.00 in /  0 mm 25 W/m2
14:41 37.2 °F /  2.9 °C 34.8 °F /  1.6 °C 30.25 in /  1024.3 hPa SSW 7.0 mph /  11.3 km/h -999.0 mph /  -1607.7 km/h 91 % 0.00 in /  0 mm 31 W/m2
14:46 37.2 °F /  2.9 °C 34.8 °F /  1.6 °C 30.25 in /  1024.3 hPa SSW 7.0 mph /  11.3 km/h -999.0 mph /  -1607.7 km/h 91 % 0.00 in /  0 mm 31 W/m2
14:51 37.2 °F /  2.9 °C 34.8 °F /  1.6 °C 30.25 in /  1024.3 hPa SSW 7.0 mph /  11.3 km/h -999.0 mph /  -1607.7 km/h 91 % 0.00 in /  0 mm 31 W/m2
14:56 37.1 °F /  2.8 °C 34.7 °F /  1.5 °C 30.26 in /  1024.6 hPa South 4.0 mph /  6.4 km/h -999.0 mph /  -1607.7 km/h 91 % 0.00 in /  0 mm 34 W/m2
15:01 37.1 °F /  2.8 °C 34.7 °F /  1.5 °C 30.26 in /  1024.6 hPa South 4.0 mph /  6.4 km/h -999.0 mph /  -1607.7 km/h 91 % 0.00 in /  0 mm 34 W/m2
15:06 37.1 °F /  2.8 °C 34.7 °F /  1.5 °C 30.26 in /  1024.6 hPa South 4.0 mph /  6.4 km/h -999.0 mph /  -1607.7 km/h 91 % 0.00 in /  0 mm 34 W/m2
15:11 37.1 °F /  2.8 °C 34.7 °F /  1.5 °C 30.26 in /  1024.6 hPa Calm   -999.0 mph /  -1607.7 km/h 91 % 0.00 in /  0 mm 18 W/m2
15:16 37.1 °F /  2.8 °C 34.7 °F /  1.5 °C 30.26 in /  1024.6 hPa Calm   -999.0 mph /  -1607.7 km/h 91 % 0.00 in /  0 mm 18 W/m2
15:21 37.1 °F /  2.8 °C 34.7 °F /  1.5 °C 30.26 in /  1024.6 hPa Calm   -999.0 mph /  -1607.7 km/h 91 % 0.00 in /  0 mm 18 W/m2
15:26 37.2 °F /  2.9 °C 34.8 °F /  1.6 °C 30.26 in /  1024.6 hPa SSW 1.0 mph /  1.6 km/h -999.0 mph /  -1607.7 km/h 91 % 0.00 in /  0 mm 13 W/m2
15:31 37.2 °F /  2.9 °C 34.8 °F /  1.6 °C 30.26 in /  1024.6 hPa SSW 1.0 mph /  1.6 km/h -999.0 mph /  -1607.7 km/h 91 % 0.00 in /  0 mm 13 W/m2
15:36 37.2 °F /  2.9 °C 34.8 °F /  1.6 °C 30.26 in /  1024.6 hPa SSW 1.0 mph /  1.6 km/h -999.0 mph /  -1607.7 km/h 91 % 0.00 in /  0 mm 13 W/m2
15:41 37.5 °F /  3.1 °C 35.1 °F /  1.7 °C 30.26 in /  1024.6 hPa SW 1.0 mph /  1.6 km/h -999.0 mph /  -1607.7 km/h 91 % 0.00 in /  0 mm 11 W/m2
15:46 37.5 °F /  3.1 °C 35.1 °F /  1.7 °C 30.26 in /  1024.6 hPa SW 1.0 mph /  1.6 km/h -999.0 mph /  -1607.7 km/h 91 % 0.00 in /  0 mm 11 W/m2
15:51 37.5 °F /  3.1 °C 35.1 °F /  1.7 °C 30.26 in /  1024.6 hPa SW 1.0 mph /  1.6 km/h -999.0 mph /  -1607.7 km/h 91 % 0.00 in /  0 mm 11 W/m2
15:56 37.6 °F /  3.1 °C 35.2 °F /  1.8 °C 30.26 in /  1024.6 hPa Calm   -999.0 mph /  -1607.7 km/h 91 % 0.00 in /  0 mm 8 W/m2
16:01 37.6 °F /  3.1 °C 35.2 °F /  1.8 °C 30.26 in /  1024.6 hPa Calm   -999.0 mph /  -1607.7 km/h 91 % 0.00 in /  0 mm 8 W/m2
16:06 37.6 °F /  3.1 °C 35.2 °F /  1.8 °C 30.26 in /  1024.6 hPa Calm   -999.0 mph /  -1607.7 km/h 91 % 0.00 in /  0 mm 8 W/m2
16:11 37.5 °F /  3.1 °C 35.1 °F /  1.7 °C 30.26 in /  1024.6 hPa Calm   -999.0 mph /  -1607.7 km/h 91 % 0.00 in /  0 mm 1 W/m2
16:16 37.5 °F /  3.1 °C 35.1 °F /  1.7 °C 30.26 in /  1024.6 hPa Calm   -999.0 mph /  -1607.7 km/h 91 % 0.00 in /  0 mm 1 W/m2
16:21 37.5 °F /  3.1 °C 35.1 °F /  1.7 °C 30.26 in /  1024.6 hPa Calm   -999.0 mph /  -1607.7 km/h 91 % 0.00 in /  0 mm 1 W/m2
16:26 37.4 °F /  3 °C 35.0 °F /  1.7 °C 30.27 in /  1024.9 hPa ENE 1.0 mph /  1.6 km/h -999.0 mph /  -1607.7 km/h 91 % 0.00 in /  0 mm 0 W/m2
16:31 37.4 °F /  3 °C 35.0 °F /  1.7 °C 30.27 in /  1024.9 hPa ENE 1.0 mph /  1.6 km/h -999.0 mph /  -1607.7 km/h 91 % 0.00 in /  0 mm 0 W/m2
16:36 37.4 °F /  3 °C 35.0 °F /  1.7 °C 30.27 in /  1024.9 hPa ENE 1.0 mph /  1.6 km/h -999.0 mph /  -1607.7 km/h 91 % 0.00 in /  0 mm 0 W/m2
16:41 37.4 °F /  3 °C 35.0 °F /  1.7 °C 30.27 in /  1024.9 hPa NE 1.0 mph /  1.6 km/h -999.0 mph /  -1607.7 km/h 91 % 0.00 in /  0 mm 0 W/m2
16:46 37.4 °F /  3 °C 35.0 °F /  1.7 °C 30.27 in /  1024.9 hPa NE 1.0 mph /  1.6 km/h -999.0 mph /  -1607.7 km/h 91 % 0.00 in /  0 mm 0 W/m2
16:51 37.4 °F /  3 °C 35.0 °F /  1.7 °C 30.27 in /  1024.9 hPa NE 1.0 mph /  1.6 km/h -999.0 mph /  -1607.7 km/h 91 % 0.00 in /  0 mm 0 W/m2
16:56 37.5 °F /  3.1 °C 35.1 °F /  1.7 °C 30.27 in /  1024.9 hPa NNW 1.0 mph /  1.6 km/h -999.0 mph /  -1607.7 km/h 91 % 0.00 in /  0 mm 0 W/m2
17:01 37.5 °F /  3.1 °C 35.1 °F /  1.7 °C 30.27 in /  1024.9 hPa NNW 1.0 mph /  1.6 km/h -999.0 mph /  -1607.7 km/h 91 % 0.00 in /  0 mm 0 W/m2
17:06 37.5 °F /  3.1 °C 35.1 °F /  1.7 °C 30.27 in /  1024.9 hPa NNW 1.0 mph /  1.6 km/h -999.0 mph /  -1607.7 km/h 91 % 0.00 in /  0 mm 0 W/m2
17:11 37.5 °F /  3.1 °C 35.1 °F /  1.7 °C 30.28 in /  1025.3 hPa NW 1.0 mph /  1.6 km/h -999.0 mph /  -1607.7 km/h 91 % 0.00 in /  0 mm 0 W/m2
17:16 37.5 °F /  3.1 °C 35.1 °F /  1.7 °C 30.28 in /  1025.3 hPa NW 1.0 mph /  1.6 km/h -999.0 mph /  -1607.7 km/h 91 % 0.00 in /  0 mm 0 W/m2
17:21 37.5 °F /  3.1 °C 35.1 °F /  1.7 °C 30.28 in /  1025.3 hPa NW 1.0 mph /  1.6 km/h -999.0 mph /  -1607.7 km/h 91 % 0.00 in /  0 mm 0 W/m2
17:26 37.6 °F /  3.1 °C 35.5 °F /  1.9 °C 30.28 in /  1025.3 hPa NW 2.0 mph /  3.2 km/h -999.0 mph /  -1607.7 km/h 92 % 0.00 in /  0 mm 0 W/m2
17:31 37.6 °F /  3.1 °C 35.5 °F /  1.9 °C 30.28 in /  1025.3 hPa NW 2.0 mph /  3.2 km/h -999.0 mph /  -1607.7 km/h 92 % 0.00 in /  0 mm 0 W/m2
17:36 37.6 °F /  3.1 °C 35.5 °F /  1.9 °C 30.28 in /  1025.3 hPa NW 2.0 mph /  3.2 km/h -999.0 mph /  -1607.7 km/h 92 % 0.00 in /  0 mm 0 W/m2
17:41 37.7 °F /  3.2 °C 35.6 °F /  2 °C 30.28 in /  1025.3 hPa NW 1.0 mph /  1.6 km/h -999.0 mph /  -1607.7 km/h 92 % 0.00 in /  0 mm 0 W/m2
17:46 37.7 °F /  3.2 °C 35.6 °F /  2 °C 30.28 in /  1025.3 hPa NW 1.0 mph /  1.6 km/h -999.0 mph /  -1607.7 km/h 92 % 0.00 in /  0 mm 0 W/m2
17:51 37.7 °F /  3.2 °C 35.6 °F /  2 °C 30.28 in /  1025.3 hPa NW 1.0 mph /  1.6 km/h -999.0 mph /  -1607.7 km/h 92 % 0.00 in /  0 mm 0 W/m2
17:56 37.8 °F /  3.2 °C 35.7 °F /  2.1 °C 30.28 in /  1025.3 hPa Calm   -999.0 mph /  -1607.7 km/h 92 % 0.00 in /  0 mm 0 W/m2
18:01 37.8 °F /  3.2 °C 35.7 °F /  2.1 °C 30.28 in /  1025.3 hPa Calm   -999.0 mph /  -1607.7 km/h 92 % 0.00 in /  0 mm 0 W/m2
18:06 37.8 °F /  3.2 °C 35.7 °F /  2.1 °C 30.28 in /  1025.3 hPa Calm   -999.0 mph /  -1607.7 km/h 92 % 0.00 in /  0 mm 0 W/m2
18:11 37.7 °F /  3.2 °C 35.6 °F /  2 °C 30.28 in /  1025.3 hPa Calm   -999.0 mph /  -1607.7 km/h 92 % 0.00 in /  0 mm 0 W/m2
18:16 37.7 °F /  3.2 °C 35.6 °F /  2 °C 30.28 in /  1025.3 hPa Calm   -999.0 mph /  -1607.7 km/h 92 % 0.00 in /  0 mm 0 W/m2
18:21 37.7 °F /  3.2 °C 35.6 °F /  2 °C 30.28 in /  1025.3 hPa Calm   -999.0 mph /  -1607.7 km/h 92 % 0.00 in /  0 mm 0 W/m2
18:26 37.5 °F /  3.1 °C 35.4 °F /  1.9 °C 30.29 in /  1025.6 hPa Calm   -999.0 mph /  -1607.7 km/h 92 % 0.00 in /  0 mm 0 W/m2
18:31 37.5 °F /  3.1 °C 35.4 °F /  1.9 °C 30.29 in /  1025.6 hPa Calm   -999.0 mph /  -1607.7 km/h 92 % 0.00 in /  0 mm 0 W/m2
18:36 37.5 °F /  3.1 °C 35.4 °F /  1.9 °C 30.29 in /  1025.6 hPa Calm   -999.0 mph /  -1607.7 km/h 92 % 0.00 in /  0 mm 0 W/m2
18:41 37.3 °F /  2.9 °C 35.2 °F /  1.8 °C 30.29 in /  1025.6 hPa Calm   -999.0 mph /  -1607.7 km/h 92 % 0.00 in /  0 mm 0 W/m2
18:46 37.3 °F /  2.9 °C 35.2 °F /  1.8 °C 30.29 in /  1025.6 hPa Calm   -999.0 mph /  -1607.7 km/h 92 % 0.00 in /  0 mm 0 W/m2
18:51 37.3 °F /  2.9 °C 35.2 °F /  1.8 °C 30.29 in /  1025.6 hPa Calm   -999.0 mph /  -1607.7 km/h 92 % 0.00 in /  0 mm 0 W/m2
18:56 37.1 °F /  2.8 °C 35.0 °F /  1.7 °C 30.29 in /  1025.6 hPa Calm   -999.0 mph /  -1607.7 km/h 92 % 0.00 in /  0 mm 0 W/m2
19:01 37.1 °F /  2.8 °C 35.0 °F /  1.7 °C 30.29 in /  1025.6 hPa Calm   -999.0 mph /  -1607.7 km/h 92 % 0.00 in /  0 mm 0 W/m2
19:06 37.1 °F /  2.8 °C 35.0 °F /  1.7 °C 30.29 in /  1025.6 hPa Calm   -999.0 mph /  -1607.7 km/h 92 % 0.00 in /  0 mm 0 W/m2
19:11 37.0 °F /  2.8 °C 35.2 °F /  1.8 °C 30.29 in /  1025.6 hPa Calm   -999.0 mph /  -1607.7 km/h 93 % 0.00 in /  0 mm 0 W/m2
19:16 37.0 °F /  2.8 °C 35.2 °F /  1.8 °C 30.29 in /  1025.6 hPa Calm   -999.0 mph /  -1607.7 km/h 93 % 0.00 in /  0 mm 0 W/m2
19:21 37.0 °F /  2.8 °C 35.2 °F /  1.8 °C 30.29 in /  1025.6 hPa Calm   -999.0 mph /  -1607.7 km/h 93 % 0.00 in /  0 mm 0 W/m2
19:26 36.9 °F /  2.7 °C 35.1 °F /  1.7 °C 30.29 in /  1025.6 hPa Calm   -999.0 mph /  -1607.7 km/h 93 % 0.00 in /  0 mm 0 W/m2
19:31 36.9 °F /  2.7 °C 35.1 °F /  1.7 °C 30.29 in /  1025.6 hPa Calm   -999.0 mph /  -1607.7 km/h 93 % 0.00 in /  0 mm 0 W/m2
19:36 36.9 °F /  2.7 °C 35.1 °F /  1.7 °C 30.29 in /  1025.6 hPa Calm   -999.0 mph /  -1607.7 km/h 93 % 0.00 in /  0 mm 0 W/m2
19:41 36.8 °F /  2.7 °C 35.2 °F /  1.8 °C 30.29 in /  1025.6 hPa Calm   -999.0 mph /  -1607.7 km/h 94 % 0.00 in /  0 mm 0 W/m2
19:46 36.8 °F /  2.7 °C 35.2 °F /  1.8 °C 30.29 in /  1025.6 hPa Calm   -999.0 mph /  -1607.7 km/h 94 % 0.00 in /  0 mm 0 W/m2
19:51 36.8 °F /  2.7 °C 35.2 °F /  1.8 °C 30.29 in /  1025.6 hPa Calm   -999.0 mph /  -1607.7 km/h 94 % 0.00 in /  0 mm 0 W/m2
19:56 36.9 °F /  2.7 °C 35.3 °F /  1.8 °C 30.29 in /  1025.6 hPa Calm   -999.0 mph /  -1607.7 km/h 94 % 0.00 in /  0 mm 0 W/m2
20:01 36.9 °F /  2.7 °C 35.3 °F /  1.8 °C 30.29 in /  1025.6 hPa Calm   -999.0 mph /  -1607.7 km/h 94 % 0.00 in /  0 mm 0 W/m2
20:06 36.9 °F /  2.7 °C 35.3 °F /  1.8 °C 30.29 in /  1025.6 hPa Calm   -999.0 mph /  -1607.7 km/h 94 % 0.00 in /  0 mm 0 W/m2
20:11 36.8 °F /  2.7 °C 35.2 °F /  1.8 °C 30.30 in /  1026 hPa Calm   -999.0 mph /  -1607.7 km/h 94 % 0.00 in /  0 mm 0 W/m2
20:16 36.8 °F /  2.7 °C 35.2 °F /  1.8 °C 30.30 in /  1026 hPa Calm   -999.0 mph /  -1607.7 km/h 94 % 0.00 in /  0 mm 0 W/m2
20:21 36.8 °F /  2.7 °C 35.2 °F /  1.8 °C 30.30 in /  1026 hPa Calm   -999.0 mph /  -1607.7 km/h 94 % 0.00 in /  0 mm 0 W/m2
20:26 36.6 °F /  2.6 °C 35.0 °F /  1.7 °C 30.30 in /  1026 hPa Calm   -999.0 mph /  -1607.7 km/h 94 % 0.00 in /  0 mm 0 W/m2
20:31 36.6 °F /  2.6 °C 35.0 °F /  1.7 °C 30.30 in /  1026 hPa Calm   -999.0 mph /  -1607.7 km/h 94 % 0.00 in /  0 mm 0 W/m2
20:36 36.6 °F /  2.6 °C 35.0 °F /  1.7 °C 30.30 in /  1026 hPa Calm   -999.0 mph /  -1607.7 km/h 94 % 0.00 in /  0 mm 0 W/m2
20:41 36.5 °F /  2.5 °C 34.9 °F /  1.6 °C 30.30 in /  1026 hPa Calm   -999.0 mph /  -1607.7 km/h 94 % 0.00 in /  0 mm 0 W/m2
20:46 36.5 °F /  2.5 °C 34.9 °F /  1.6 °C 30.30 in /  1026 hPa Calm   -999.0 mph /  -1607.7 km/h 94 % 0.00 in /  0 mm 0 W/m2
20:51 36.5 °F /  2.5 °C 34.9 °F /  1.6 °C 30.30 in /  1026 hPa Calm   -999.0 mph /  -1607.7 km/h 94 % 0.00 in /  0 mm 0 W/m2
20:56 36.4 °F /  2.4 °C 34.8 °F /  1.6 °C 30.30 in /  1026 hPa Calm   -999.0 mph /  -1607.7 km/h 94 % 0.00 in /  0 mm 0 W/m2
21:01 36.4 °F /  2.4 °C 34.8 °F /  1.6 °C 30.30 in /  1026 hPa Calm   -999.0 mph /  -1607.7 km/h 94 % 0.00 in /  0 mm 0 W/m2
21:06 36.4 °F /  2.4 °C 34.8 °F /  1.6 °C 30.30 in /  1026 hPa Calm   -999.0 mph /  -1607.7 km/h 94 % 0.00 in /  0 mm 0 W/m2
21:11 36.2 °F /  2.3 °C 34.6 °F /  1.4 °C 30.29 in /  1025.6 hPa Calm   -999.0 mph /  -1607.7 km/h 94 % 0.00 in /  0 mm 0 W/m2
21:16 36.2 °F /  2.3 °C 34.6 °F /  1.4 °C 30.29 in /  1025.6 hPa Calm   -999.0 mph /  -1607.7 km/h 94 % 0.00 in /  0 mm 0 W/m2
21:21 36.2 °F /  2.3 °C 34.6 °F /  1.4 °C 30.29 in /  1025.6 hPa Calm   -999.0 mph /  -1607.7 km/h 94 % 0.00 in /  0 mm 0 W/m2
21:26 36.2 °F /  2.3 °C 34.6 °F /  1.4 °C 30.30 in /  1026 hPa Calm   -999.0 mph /  -1607.7 km/h 94 % 0.00 in /  0 mm 0 W/m2
21:31 36.2 °F /  2.3 °C 34.6 °F /  1.4 °C 30.30 in /  1026 hPa Calm   -999.0 mph /  -1607.7 km/h 94 % 0.00 in /  0 mm 0 W/m2
21:36 36.2 °F /  2.3 °C 34.6 °F /  1.4 °C 30.30 in /  1026 hPa Calm   -999.0 mph /  -1607.7 km/h 94 % 0.00 in /  0 mm 0 W/m2
21:41 36.0 °F /  2.2 °C 34.4 °F /  1.3 °C 30.31 in /  1026.3 hPa Calm   -999.0 mph /  -1607.7 km/h 94 % 0.00 in /  0 mm 0 W/m2
21:46 36.0 °F /  2.2 °C 34.4 °F /  1.3 °C 30.31 in /  1026.3 hPa Calm   -999.0 mph /  -1607.7 km/h 94 % 0.00 in /  0 mm 0 W/m2
21:51 36.0 °F /  2.2 °C 34.4 °F /  1.3 °C 30.31 in /  1026.3 hPa Calm   -999.0 mph /  -1607.7 km/h 94 % 0.00 in /  0 mm 0 W/m2
21:56 35.6 °F /  2 °C 34.3 °F /  1.3 °C 30.31 in /  1026.3 hPa Calm   -999.0 mph /  -1607.7 km/h 95 % 0.00 in /  0 mm 0 W/m2
22:01 35.6 °F /  2 °C 34.3 °F /  1.3 °C 30.31 in /  1026.3 hPa Calm   -999.0 mph /  -1607.7 km/h 95 % 0.00 in /  0 mm 0 W/m2
22:06 35.6 °F /  2 °C 34.3 °F /  1.3 °C 30.31 in /  1026.3 hPa Calm   -999.0 mph /  -1607.7 km/h 95 % 0.00 in /  0 mm 0 W/m2
22:11 35.4 °F /  1.9 °C 34.1 °F /  1.2 °C 30.31 in /  1026.3 hPa Calm   -999.0 mph /  -1607.7 km/h 95 % 0.00 in /  0 mm 0 W/m2
22:16 35.4 °F /  1.9 °C 34.1 °F /  1.2 °C 30.31 in /  1026.3 hPa Calm   -999.0 mph /  -1607.7 km/h 95 % 0.00 in /  0 mm 0 W/m2
22:21 35.4 °F /  1.9 °C 34.1 °F /  1.2 °C 30.31 in /  1026.3 hPa Calm   -999.0 mph /  -1607.7 km/h 95 % 0.00 in /  0 mm 0 W/m2
22:26 35.0 °F /  1.7 °C 33.4 °F /  0.8 °C 30.31 in /  1026.3 hPa Calm   -999.0 mph /  -1607.7 km/h 94 % 0.00 in /  0 mm 0 W/m2
22:31 35.0 °F /  1.7 °C 33.4 °F /  0.8 °C 30.31 in /  1026.3 hPa Calm   -999.0 mph /  -1607.7 km/h 94 % 0.00 in /  0 mm 0 W/m2
22:36 35.0 °F /  1.7 °C 33.4 °F /  0.8 °C 30.31 in /  1026.3 hPa Calm   -999.0 mph /  -1607.7 km/h 94 % 0.00 in /  0 mm 0 W/m2
22:41 34.6 °F /  1.4 °C 33.3 °F /  0.7 °C 30.31 in /  1026.3 hPa Calm   -999.0 mph /  -1607.7 km/h 95 % 0.00 in /  0 mm 0 W/m2
22:46 34.6 °F /  1.4 °C 33.3 °F /  0.7 °C 30.31 in /  1026.3 hPa Calm   -999.0 mph /  -1607.7 km/h 95 % 0.00 in /  0 mm 0 W/m2
22:51 34.6 °F /  1.4 °C 33.3 °F /  0.7 °C 30.31 in /  1026.3 hPa Calm   -999.0 mph /  -1607.7 km/h 95 % 0.00 in /  0 mm 0 W/m2
22:56 34.2 °F /  1.2 °C 32.9 °F /  0.5 °C 30.31 in /  1026.3 hPa Calm   -999.0 mph /  -1607.7 km/h 95 % 0.00 in /  0 mm 0 W/m2
23:01 34.2 °F /  1.2 °C 32.9 °F /  0.5 °C 30.31 in /  1026.3 hPa Calm   -999.0 mph /  -1607.7 km/h 95 % 0.00 in /  0 mm 0 W/m2
23:06 34.2 °F /  1.2 °C 32.9 °F /  0.5 °C 30.31 in /  1026.3 hPa Calm   -999.0 mph /  -1607.7 km/h 95 % 0.00 in /  0 mm 0 W/m2
23:11 33.9 °F /  1.1 °C 32.6 °F /  0.3 °C 30.32 in /  1026.6 hPa Calm   -999.0 mph /  -1607.7 km/h 95 % 0.00 in /  0 mm 0 W/m2
23:16 33.9 °F /  1.1 °C 32.6 °F /  0.3 °C 30.32 in /  1026.6 hPa Calm   -999.0 mph /  -1607.7 km/h 95 % 0.00 in /  0 mm 0 W/m2
23:21 33.9 °F /  1.1 °C 32.6 °F /  0.3 °C 30.32 in /  1026.6 hPa Calm   -999.0 mph /  -1607.7 km/h 95 % 0.00 in /  0 mm 0 W/m2
23:26 33.8 °F /  1 °C 32.8 °F /  0.4 °C 30.32 in /  1026.6 hPa West 1.0 mph /  1.6 km/h -999.0 mph /  -1607.7 km/h 96 % 0.00 in /  0 mm 0 W/m2
23:31 33.8 °F /  1 °C 32.8 °F /  0.4 °C 30.32 in /  1026.6 hPa West 1.0 mph /  1.6 km/h -999.0 mph /  -1607.7 km/h 96 % 0.00 in /  0 mm 0 W/m2
23:36 33.8 °F /  1 °C 32.8 °F /  0.4 °C 30.32 in /  1026.6 hPa West 1.0 mph /  1.6 km/h -999.0 mph /  -1607.7 km/h 96 % 0.00 in /  0 mm 0 W/m2
23:41 34.1 °F /  1.2 °C 33.1 °F /  0.6 °C 30.32 in /  1026.6 hPa North 2.0 mph /  3.2 km/h -999.0 mph /  -1607.7 km/h 96 % 0.00 in /  0 mm 0 W/m2
23:46 34.1 °F /  1.2 °C 33.1 °F /  0.6 °C 30.32 in /  1026.6 hPa North 2.0 mph /  3.2 km/h -999.0 mph /  -1607.7 km/h 96 % 0.00 in /  0 mm 0 W/m2
23:51 34.1 °F /  1.2 °C 33.1 °F /  0.6 °C 30.32 in /  1026.6 hPa North 2.0 mph /  3.2 km/h -999.0 mph /  -1607.7 km/h 96 % 0.00 in /  0 mm 0 W/m2
23:56 34.0 °F /  1.1 °C 32.7 °F /  0.4 °C 30.32 in /  1026.6 hPa Calm   -999.0 mph /  -1607.7 km/h 95 % 0.00 in /  0 mm 0 W/m2
Delerius-Weather
Compliments of Weather Underground - 2.25 mb

Data updates at regular intervals.